Terminal Aerodrome Forecast
Issued by NWS

Home | Current Version | Previous Version | Text Only | Print | Product List | Glossary On
Versions: 1 2 3 4 5 6 7 8 9 10 11 12 13 14 15 16 17
155
FTUS46 KSEW 111724
TAFBLI
TAF
KBLI 111724Z 1118/1218 02006KT P6SM OVC080
     FM112300 04006KT P6SM -RA OVC050
     FM120600 14008G14KT P6SM -RA OVC035
     FM121300 15012G18KT 4SM -RA BR OVC030
     FM121700 16012G20KT 4SM -RA BR OVC030=

USA.gov is the U.S. government's official web portal to all federal, state and local government web resources and services.